Time;durP1;ratioP1;P1;durP2;ratioP2;P2;SDS_P1;SDS_P2;PMS_P1;PMS_P2;Temp;Humidity;BMP_temperature;BMP_pressure;BME280_temperature;BME280_humidity;BME280_pressure;Samples;Min_cycle;Max_cycle;Signal;HPM_P1;HPM_P2
2022/08/27 00:01:15;;;;;;;13.18;11.77;;;21.90;99.90;;;;;;7391190;19;20458;-72
2022/08/27 00:03:45;;;;;;;13.95;11.20;;;21.70;99.90;;;;;;7397333;19;20206;-72
2022/08/27 00:06:13;;;;;;;13.00;10.02;;;21.80;99.90;;;;;;7392543;19;20473;-72
2022/08/27 00:08:41;;;;;;;14.25;11.35;;;21.90;99.90;;;;;;7392843;19;20155;-72
2022/08/27 00:11:07;;;;;;;15.52;11.75;;;21.90;99.90;;;;;;7390610;19;20214;-71
2022/08/27 00:13:33;;;;;;;15.13;11.45;;;22.10;99.90;;;;;;7393117;19;20146;-72
2022/08/27 00:15:59;;;;;;;14.55;10.20;;;22.00;99.90;;;;;;7393766;19;20146;-72
2022/08/27 00:18:25;;;;;;;13.93;11.02;;;22.10;99.90;;;;;;7392061;19;20147;-73
2022/08/27 00:20:52;;;;;;;11.95;9.55;;;22.20;99.90;;;;;;7393867;19;20153;-72
2022/08/27 00:23:18;;;;;;;12.98;11.00;;;21.90;99.90;;;;;;7392171;19;20142;-72
2022/08/27 00:25:44;;;;;;;13.40;10.55;;;22.00;99.90;;;;;;7394997;19;20138;-71
2022/08/27 00:28:09;;;;;;;13.77;11.13;;;22.10;99.90;;;;;;7395003;19;20145;-73
2022/08/27 00:30:35;;;;;;;14.52;11.10;;;22.10;99.90;;;;;;7395366;19;20141;-72
2022/08/27 00:33:03;;;;;;;12.75;11.20;;;22.00;99.90;;;;;;7393168;19;20127;-71
2022/08/27 00:35:29;;;;;;;15.55;11.43;;;22.10;99.90;;;;;;7392818;19;20482;-72
2022/08/27 00:37:54;;;;;;;12.85;11.45;;;21.90;99.90;;;;;;7390021;19;20244;-72
2022/08/27 00:40:21;;;;;;;14.57;11.68;;;21.90;99.90;;;;;;7391568;19;20550;-72
2022/08/27 00:42:48;;;;;;;13.57;10.88;;;22.00;99.90;;;;;;7391921;19;20517;-72
2022/08/27 00:45:17;;;;;;;14.45;10.75;;;21.90;99.90;;;;;;7393557;19;20171;-71
2022/08/27 00:47:48;;;;;;;15.25;11.45;;;21.70;99.90;;;;;;7394643;19;20462;-72
2022/08/27 00:50:23;;;;;;;13.27;11.20;;;21.90;99.90;;;;;;7390654;19;20135;-71
2022/08/27 00:52:56;;;;;;;13.65;10.85;;;21.90;99.90;;;;;;7391315;19;20126;-70
2022/08/27 00:55:26;;;;;;;13.40;11.05;;;21.80;99.90;;;;;;7392905;19;20135;-71
2022/08/27 00:58:16;;;;;;;14.43;11.45;;;21.90;99.90;;;;;;7392099;19;20134;-70
2022/08/27 01:00:43;;;;;;;18.20;12.10;;;22.00;99.90;;;;;;7387958;19;20182;-72
2022/08/27 01:03:09;;;;;;;16.33;12.07;;;22.00;99.90;;;;;;7390805;19;20139;-72
2022/08/27 01:05:35;;;;;;;15.48;12.13;;;21.60;99.90;;;;;;7391793;19;20146;-73
2022/08/27 01:08:08;;;;;;;14.63;11.95;;;21.70;99.90;;;;;;7395531;19;20138;-72
2022/08/27 01:10:35;;;;;;;16.88;12.35;;;21.50;99.90;;;;;;7391864;19;20617;-72
2022/08/27 01:13:01;;;;;;;14.35;12.43;;;21.50;99.90;;;;;;7387727;19;20487;-71
2022/08/27 01:15:29;;;;;;;14.90;11.60;;;21.70;99.90;;;;;;7388339;19;20202;-71
2022/08/27 01:17:57;;;;;;;15.73;12.27;;;21.70;99.90;;;;;;7393061;19;20126;-71
2022/08/27 01:20:47;;;;;;;16.80;13.32;;;21.80;99.90;;;;;;7390489;19;20138;-71
2022/08/27 01:23:21;;;;;;;15.15;12.95;;;21.80;99.90;;;;;;7387223;19;20139;-73
2022/08/27 01:25:48;;;;;;;16.38;13.80;;;21.80;99.90;;;;;;7394416;19;20209;-71
2022/08/27 01:28:14;;;;;;;16.65;12.77;;;21.90;99.90;;;;;;7388989;19;20178;-73
2022/08/27 01:30:41;;;;;;;16.83;14.35;;;22.00;99.90;;;;;;7394569;19;20445;-71
2022/08/27 01:33:15;;;;;;;14.48;12.98;;;21.80;99.90;;;;;;7393105;19;20133;-72
2022/08/27 01:35:51;;;;;;;17.02;13.98;;;21.80;99.90;;;;;;7386242;19;20225;-72
2022/08/27 01:38:18;;;;;;;18.27;14.00;;;21.80;99.90;;;;;;7390230;19;20138;-73
2022/08/27 01:40:44;;;;;;;19.50;13.38;;;21.80;99.90;;;;;;7392039;19;20177;-73
2022/08/27 01:43:10;;;;;;;16.60;13.18;;;21.50;99.90;;;;;;7394199;19;20145;-72
2022/08/27 01:45:47;;;;;;;17.92;13.60;;;21.70;99.90;;;;;;7388348;19;20157;-72
2022/08/27 01:48:14;;;;;;;15.35;13.35;;;21.40;99.90;;;;;;7389966;19;20212;-71
2022/08/27 01:50:41;;;;;;;16.20;14.35;;;21.30;99.90;;;;;;7386772;19;20916;-72
2022/08/27 01:53:14;;;;;;;16.60;13.90;;;21.30;99.90;;;;;;7385932;19;20145;-72
2022/08/27 01:55:41;;;;;;;15.50;13.18;;;21.40;99.90;;;;;;7390431;19;20232;-73
2022/08/27 01:58:07;;;;;;;17.42;13.05;;;21.40;99.90;;;;;;7387200;19;20131;-71
2022/08/27 02:00:37;;;;;;;18.52;14.52;;;21.60;99.90;;;;;;7390409;19;20466;-71
2022/08/27 02:03:05;;;;;;;15.75;13.15;;;21.80;99.90;;;;;;7388538;19;20135;-71
2022/08/27 02:05:31;;;;;;;21.08;14.98;;;21.80;99.90;;;;;;7392749;19;20130;-71
2022/08/27 02:07:57;;;;;;;16.15;13.60;;;21.30;99.90;;;;;;7389320;19;20127;-72
2022/08/27 02:10:32;;;;;;;18.75;14.40;;;21.50;99.90;;;;;;7389419;19;20475;-70
2022/08/27 02:12:57;;;;;;;15.95;14.05;;;21.70;99.90;;;;;;7386676;19;20140;-71
2022/08/27 02:15:24;;;;;;;16.58;13.98;;;21.40;99.90;;;;;;7385951;19;20206;-71
2022/08/27 02:17:51;;;;;;;17.92;14.10;;;21.30;99.90;;;;;;7387399;19;20150;-71
2022/08/27 02:20:17;;;;;;;18.23;15.02;;;21.50;99.90;;;;;;7391612;19;20139;-71
2022/08/27 02:22:43;;;;;;;19.15;14.65;;;21.70;99.90;;;;;;7387786;19;20185;-70
2022/08/27 02:25:12;;;;;;;19.25;14.82;;;21.90;99.90;;;;;;7388435;19;20154;-71
2022/08/27 02:27:38;;;;;;;20.98;15.20;;;22.00;99.90;;;;;;7385567;19;20130;-71
2022/08/27 02:30:04;;;;;;;17.75;14.55;;;21.90;99.90;;;;;;7392359;19;20151;-76
2022/08/27 02:32:31;;;;;;;19.17;15.25;;;21.80;99.90;;;;;;7386232;19;20126;-76
2022/08/27 02:34:57;;;;;;;18.58;15.43;;;21.90;99.90;;;;;;7386633;19;20130;-78
2022/08/27 02:37:22;;;;;;;20.02;15.30;;;21.90;99.90;;;;;;7388771;19;20133;-76
2022/08/27 02:39:48;;;;;;;17.83;14.05;;;21.90;99.90;;;;;;7392443;19;20138;-75
2022/08/27 02:42:14;;;;;;;17.45;14.65;;;21.90;99.90;;;;;;7387847;19;20832;-70
2022/08/27 02:44:40;;;;;;;17.77;14.68;;;21.90;99.90;;;;;;7387135;19;20573;-71
2022/08/27 02:47:06;;;;;;;18.65;14.20;;;21.90;99.90;;;;;;7386375;19;20625;-71
2022/08/27 02:49:32;;;;;;;18.73;14.75;;;21.90;99.90;;;;;;7390401;19;20589;-71
2022/08/27 02:51:58;;;;;;;18.88;15.77;;;21.90;99.90;;;;;;7388093;19;20136;-71
2022/08/27 02:54:25;;;;;;;19.55;16.40;;;22.20;99.90;;;;;;7388639;19;20135;-73
2022/08/27 02:56:53;;;;;;;19.02;15.25;;;22.20;99.90;;;;;;7388885;19;20754;-72
2022/08/27 02:59:19;;;;;;;19.83;14.02;;;22.10;99.90;;;;;;7389732;19;20184;-72
2022/08/27 03:01:46;;;;;;;18.52;15.27;;;22.10;99.90;;;;;;7389796;19;20135;-72
2022/08/27 03:04:12;;;;;;;18.08;14.63;;;21.90;99.90;;;;;;7388069;19;20151;-71
2022/08/27 03:06:38;;;;;;;18.35;14.55;;;21.90;99.90;;;;;;7387704;19;20150;-71
2022/08/27 03:09:04;;;;;;;17.85;14.52;;;21.90;99.90;;;;;;7387390;19;20146;-71
2022/08/27 03:11:31;;;;;;;16.60;14.23;;;22.00;99.90;;;;;;7389413;19;20143;-72
2022/08/27 03:13:57;;;;;;;17.98;14.52;;;21.90;99.90;;;;;;7386559;19;20131;-71
2022/08/27 03:16:24;;;;;;;25.35;15.73;;;21.90;99.90;;;;;;7385698;19;20612;-72
2022/08/27 03:18:51;;;;;;;18.25;15.13;;;21.80;99.90;;;;;;7390843;19;20142;-72
2022/08/27 03:21:20;;;;;;;19.63;14.98;;;21.90;99.90;;;;;;7386416;19;20171;-72
2022/08/27 03:23:47;;;;;;;19.50;15.30;;;21.80;99.90;;;;;;7388472;19;20145;-72
2022/08/27 03:26:14;;;;;;;18.15;14.13;;;21.70;99.90;;;;;;7383706;19;20140;-72
2022/08/27 03:28:40;;;;;;;16.13;13.48;;;21.70;99.90;;;;;;7397147;19;20130;-72
2022/08/27 03:31:13;;;;;;;14.85;12.65;;;21.80;99.90;;;;;;7394538;19;20141;-72
2022/08/27 03:33:39;;;;;;;16.00;12.43;;;21.80;99.90;;;;;;7392728;19;20186;-70
2022/08/27 03:36:07;;;;;;;14.15;11.32;;;21.60;99.90;;;;;;7394592;19;20209;-72
2022/08/27 03:38:34;;;;;;;15.30;12.07;;;21.40;99.90;;;;;;7394363;19;20154;-72
2022/08/27 03:41:01;;;;;;;13.25;11.68;;;21.60;99.90;;;;;;7386911;19;20226;-72
2022/08/27 03:43:27;;;;;;;14.68;12.38;;;21.70;99.90;;;;;;7394580;19;20211;-70
2022/08/27 03:45:53;;;;;;;17.77;12.07;;;21.70;99.90;;;;;;7400083;19;20131;-71
2022/08/27 03:48:20;;;;;;;14.55;12.13;;;21.80;99.90;;;;;;7394861;19;20138;-71
2022/08/27 03:50:48;;;;;;;14.30;11.35;;;21.70;99.90;;;;;;7394602;19;20138;-71
2022/08/27 03:53:15;;;;;;;14.82;11.75;;;21.80;99.90;;;;;;7391708;19;20170;-71
2022/08/27 03:55:41;;;;;;;13.50;11.55;;;21.90;99.90;;;;;;7395476;19;20207;-71
2022/08/27 03:58:09;;;;;;;13.82;10.82;;;21.80;99.90;;;;;;7391818;19;20138;-72
2022/08/27 04:00:36;;;;;;;15.55;11.73;;;21.80;99.90;;;;;;7393913;19;20138;-71
2022/08/27 04:03:04;;;;;;;14.45;10.95;;;21.90;99.90;;;;;;7395368;19;20135;-71
2022/08/27 04:05:31;;;;;;;14.05;10.50;;;21.90;99.90;;;;;;7389772;19;20615;-73
2022/08/27 04:07:57;;;;;;;13.90;11.20;;;21.80;99.90;;;;;;7398139;19;20485;-73
2022/08/27 04:10:23;;;;;;;13.35;11.10;;;21.80;99.90;;;;;;7394568;19;20130;-72
2022/08/27 04:12:49;;;;;;;16.20;12.43;;;21.80;99.90;;;;;;7398023;19;20142;-72
2022/08/27 04:15:15;;;;;;;16.40;13.13;;;21.70;99.90;;;;;;7393086;19;20143;-71
2022/08/27 04:17:41;;;;;;;15.45;12.80;;;21.60;99.90;;;;;;7392161;19;20134;-71
2022/08/27 04:20:08;;;;;;;17.02;13.90;;;21.60;99.90;;;;;;7391253;19;20155;-71
2022/08/27 04:22:34;;;;;;;20.25;15.60;;;21.50;99.90;;;;;;7392614;19;20130;-71
2022/08/27 04:25:00;;;;;;;17.77;14.43;;;21.60;99.90;;;;;;7388021;19;20152;-71
2022/08/27 04:27:27;;;;;;;18.90;15.32;;;21.50;99.90;;;;;;7395697;19;20138;-71
2022/08/27 04:29:57;;;;;;;23.48;17.02;;;21.60;99.90;;;;;;7397725;19;20187;-71
2022/08/27 04:32:24;;;;;;;20.60;16.17;;;21.60;99.90;;;;;;7390283;19;20135;-71
2022/08/27 04:34:58;;;;;;;25.92;17.15;;;21.50;99.90;;;;;;7393912;19;20154;-71
2022/08/27 04:37:25;;;;;;;23.92;18.30;;;21.50;99.90;;;;;;7392250;19;20230;-72
2022/08/27 04:39:51;;;;;;;22.73;17.45;;;21.60;99.90;;;;;;7390626;19;20619;-71
2022/08/27 04:42:18;;;;;;;22.73;17.30;;;21.50;99.90;;;;;;7387225;19;20472;-72
2022/08/27 04:44:45;;;;;;;24.20;19.20;;;21.40;99.90;;;;;;7392454;19;20135;-71
2022/08/27 04:47:12;;;;;;;21.83;17.83;;;21.50;99.90;;;;;;7394828;19;20139;-71
2022/08/27 04:49:38;;;;;;;23.52;17.85;;;21.50;99.90;;;;;;7395516;19;20142;-72
2022/08/27 04:52:04;;;;;;;27.02;18.90;;;21.30;99.90;;;;;;7391127;19;20145;-72
2022/08/27 04:54:30;;;;;;;24.67;18.83;;;21.50;99.90;;;;;;7390089;19;20134;-71
2022/08/27 04:56:56;;;;;;;21.88;18.02;;;21.60;99.90;;;;;;7394903;19;20604;-70
2022/08/27 04:59:22;;;;;;;24.83;18.45;;;21.60;99.90;;;;;;7390273;19;20148;-71
2022/08/27 05:01:48;;;;;;;24.08;19.05;;;21.40;99.90;;;;;;7394475;19;20740;-72
2022/08/27 05:04:15;;;;;;;28.02;20.80;;;21.50;99.90;;;;;;7388177;19;20151;-73
2022/08/27 05:06:44;;;;;;;23.70;19.60;;;21.60;99.90;;;;;;7392267;19;20155;-72
2022/08/27 05:09:13;;;;;;;25.73;18.95;;;21.40;99.90;;;;;;7389652;19;20139;-72
2022/08/27 05:11:40;;;;;;;25.95;18.92;;;21.30;99.90;;;;;;7394944;19;20135;-70
2022/08/27 05:14:10;;;;;;;27.80;20.13;;;21.30;99.90;;;;;;7391754;19;20194;-72
2022/08/27 05:16:36;;;;;;;22.10;18.40;;;21.40;99.90;;;;;;7388456;19;20152;-71
2022/08/27 05:19:07;;;;;;;23.58;18.80;;;21.50;99.90;;;;;;7390948;19;20138;-72
2022/08/27 05:21:35;;;;;;;26.50;18.88;;;21.50;99.90;;;;;;7390972;19;20134;-72
2022/08/27 05:24:04;;;;;;;23.13;19.08;;;21.30;99.90;;;;;;7390351;19;20126;-71
2022/08/27 05:26:31;;;;;;;25.80;18.88;;;21.20;99.90;;;;;;7388238;19;20757;-71
2022/08/27 05:29:00;;;;;;;24.75;18.75;;;21.40;99.90;;;;;;7395974;19;20227;-72
2022/08/27 05:31:28;;;;;;;22.15;18.17;;;21.50;99.90;;;;;;7394045;19;20220;-71
2022/08/27 05:33:55;;;;;;;22.60;16.42;;;21.50;99.90;;;;;;7388954;19;20142;-72
2022/08/27 05:36:28;;;;;;;24.10;18.98;;;21.40;99.90;;;;;;7388734;19;20152;-71
2022/08/27 05:38:56;;;;;;;24.83;19.17;;;21.50;99.90;;;;;;7390664;19;20182;-70
2022/08/27 05:41:26;;;;;;;20.33;16.70;;;21.50;99.90;;;;;;7384514;19;20151;-72
2022/08/27 05:43:53;;;;;;;23.40;16.30;;;21.40;99.90;;;;;;7391110;19;20150;-72
2022/08/27 05:46:21;;;;;;;22.30;17.25;;;21.70;99.90;;;;;;7391944;19;20134;-72
2022/08/27 05:48:48;;;;;;;24.17;19.30;;;21.80;99.90;;;;;;7389108;19;20565;-71
2022/08/27 05:51:18;;;;;;;23.65;17.85;;;21.90;99.90;;;;;;7390848;19;20150;-69
2022/08/27 05:53:44;;;;;;;25.02;18.73;;;21.70;99.90;;;;;;7390387;19;20145;-71
2022/08/27 05:56:16;;;;;;;24.77;17.55;;;21.90;99.90;;;;;;7392300;19;20719;-70
2022/08/27 06:01:26;;;;;;;21.42;16.77;;;21.70;99.90;;;;;;7386334;19;20170;-70
2022/08/27 06:03:53;;;;;;;20.52;16.42;;;21.60;99.90;;;;;;7391315;19;20139;-71
2022/08/27 06:06:21;;;;;;;23.52;18.25;;;21.70;99.90;;;;;;7391489;19;20222;-72
2022/08/27 06:08:48;;;;;;;25.48;18.90;;;21.90;99.90;;;;;;7387133;19;20515;-71
2022/08/27 06:11:14;;;;;;;23.95;17.55;;;21.80;99.90;;;;;;7392753;19;20143;-72
2022/08/27 06:13:40;;;;;;;25.02;18.58;;;21.80;99.90;;;;;;7386547;19;20159;-71
2022/08/27 06:16:08;;;;;;;19.42;16.70;;;21.80;99.90;;;;;;7389019;19;20154;-71
2022/08/27 06:18:37;;;;;;;24.60;18.00;;;21.70;99.90;;;;;;7389306;19;20138;-72
2022/08/27 06:21:04;;;;;;;21.17;16.50;;;21.50;99.90;;;;;;7392589;19;20601;-72
2022/08/27 06:23:30;;;;;;;23.48;17.33;;;21.70;99.90;;;;;;7389148;19;20150;-71
2022/08/27 06:25:57;;;;;;;24.13;17.08;;;21.80;99.90;;;;;;7391336;19;20131;-71
2022/08/27 06:28:28;;;;;;;22.75;16.45;;;21.90;99.90;;;;;;7391390;19;20598;-75
2022/08/27 06:31:07;;;;;;;21.52;16.95;;;21.90;99.90;;;;;;7388537;19;20138;-71
2022/08/27 06:33:33;;;;;;;22.50;18.55;;;22.00;99.90;;;;;;7390572;19;20605;-73
2022/08/27 06:36:04;;;;;;;19.92;16.75;;;22.00;99.90;;;;;;7390860;19;20142;-72
2022/08/27 06:38:32;;;;;;;19.02;16.52;;;22.00;99.90;;;;;;7390886;19;20142;-71
2022/08/27 06:40:57;;;;;;;23.90;17.58;;;22.00;99.90;;;;;;7388450;19;20186;-72
2022/08/27 06:43:24;;;;;;;20.90;17.20;;;22.00;99.90;;;;;;7390356;19;20127;-71
2022/08/27 06:45:50;;;;;;;23.60;17.00;;;22.10;99.90;;;;;;7390184;19;20154;-71
2022/08/27 06:48:17;;;;;;;22.00;16.38;;;22.00;99.90;;;;;;7387726;19;20523;-71
2022/08/27 06:50:42;;;;;;;22.50;16.90;;;21.90;99.90;;;;;;7391905;19;20131;-72
2022/08/27 06:53:08;;;;;;;21.92;16.55;;;21.90;99.90;;;;;;7388900;19;20143;-73
2022/08/27 06:55:43;;;;;;;20.67;16.77;;;22.00;99.90;;;;;;7388603;19;20171;-73
2022/08/27 06:58:08;;;;;;;23.77;17.25;;;21.80;99.90;;;;;;7390763;19;20158;-73
2022/08/27 07:00:35;;;;;;;23.05;17.23;;;21.90;99.90;;;;;;7385094;19;20716;-73
2022/08/27 07:03:04;;;;;;;20.02;17.10;;;21.90;99.90;;;;;;7395060;19;20143;-75
2022/08/27 07:05:30;;;;;;;18.98;16.35;;;22.00;99.90;;;;;;7394144;19;20528;-72
2022/08/27 07:07:56;;;;;;;22.30;17.98;;;21.80;99.90;;;;;;7395511;19;20146;-73
2022/08/27 07:10:23;;;;;;;22.65;18.10;;;21.80;99.90;;;;;;7397905;19;20135;-73
2022/08/27 07:12:49;;;;;;;24.48;16.35;;;21.90;99.90;;;;;;7393522;19;20134;-72
2022/08/27 07:15:15;;;;;;;23.25;17.50;;;22.00;99.90;;;;;;7399233;19;20577;-73
2022/08/27 07:17:43;;;;;;;21.85;16.55;;;22.00;99.90;;;;;;7394047;19;20135;-72
2022/08/27 07:20:11;;;;;;;22.67;17.27;;;22.00;99.90;;;;;;7394490;19;20653;-74
2022/08/27 07:22:39;;;;;;;22.55;16.60;;;22.10;99.90;;;;;;7397377;19;20142;-73
2022/08/27 07:25:08;;;;;;;23.23;17.15;;;22.30;99.90;;;;;;7394833;19;20155;-72
2022/08/27 07:27:34;;;;;;;22.67;17.17;;;22.30;99.90;;;;;;7394360;19;20581;-72
2022/08/27 07:30:00;;;;;;;21.45;16.38;;;22.30;99.90;;;;;;7395374;19;20134;-73
2022/08/27 07:32:26;;;;;;;21.98;17.48;;;22.30;99.90;;;;;;7395995;19;20118;-73
2022/08/27 07:34:52;;;;;;;27.52;16.67;;;22.40;99.90;;;;;;7392924;19;20611;-73
2022/08/27 07:37:17;;;;;;;21.63;16.23;;;22.40;99.90;;;;;;7395633;19;20127;-73
2022/08/27 07:39:43;;;;;;;21.67;16.15;;;22.40;99.90;;;;;;7393763;19;20131;-74
2022/08/27 07:44:53;;;;;;;17.63;15.55;;;22.30;99.90;;;;;;7396541;19;20213;-73
2022/08/27 07:47:19;;;;;;;24.92;18.17;;;22.30;99.90;;;;;;7395132;19;20154;-74
2022/08/27 07:49:44;;;;;;;23.45;17.17;;;22.20;99.90;;;;;;7394567;19;20141;-73
2022/08/27 07:52:11;;;;;;;23.73;17.90;;;22.00;99.90;;;;;;7393065;19;20163;-74
2022/08/27 07:54:37;;;;;;;25.08;17.50;;;22.00;99.90;;;;;;7395783;19;20530;-74
2022/08/27 07:57:03;;;;;;;23.80;18.25;;;22.10;99.90;;;;;;7394676;19;20185;-73
2022/08/27 07:59:29;;;;;;;22.35;18.00;;;22.10;99.90;;;;;;7393286;19;20551;-73
2022/08/27 08:01:55;;;;;;;20.65;16.75;;;22.00;99.90;;;;;;7395226;19;20155;-72
2022/08/27 08:04:22;;;;;;;24.95;17.65;;;22.00;99.90;;;;;;7392959;19;20139;-73
2022/08/27 08:06:48;;;;;;;23.08;17.60;;;22.00;99.90;;;;;;7392946;19;20135;-72
2022/08/27 08:09:14;;;;;;;21.60;18.35;;;22.10;99.90;;;;;;7394040;19;20130;-73
2022/08/27 08:11:40;;;;;;;24.92;20.17;;;22.20;99.90;;;;;;7395620;19;20127;-74
2022/08/27 08:14:06;;;;;;;23.95;18.65;;;22.20;99.90;;;;;;7391669;19;20142;-75
2022/08/27 08:16:32;;;;;;;21.65;17.38;;;22.20;99.90;;;;;;7392894;19;20138;-74
2022/08/27 08:18:59;;;;;;;23.25;17.63;;;22.20;99.90;;;;;;7392636;19;20669;-75
2022/08/27 08:21:25;;;;;;;21.88;17.55;;;22.10;99.90;;;;;;7391813;19;20142;-73
2022/08/27 08:23:51;;;;;;;27.35;19.70;;;22.10;99.90;;;;;;7393474;19;20155;-75
2022/08/27 08:26:17;;;;;;;22.35;18.73;;;22.20;99.90;;;;;;7392768;19;20130;-74
2022/08/27 08:28:44;;;;;;;24.23;17.83;;;22.10;99.90;;;;;;7395836;19;20601;-75
2022/08/27 08:31:11;;;;;;;26.23;18.17;;;22.00;99.90;;;;;;7390685;19;20161;-74
2022/08/27 08:33:37;;;;;;;30.73;21.10;;;22.10;99.90;;;;;;7392066;19;20126;-73
2022/08/27 08:36:12;;;;;;;29.40;20.08;;;22.00;99.90;;;;;;7389305;19;20158;-74
2022/08/27 08:38:39;;;;;;;27.02;18.52;;;22.00;99.90;;;;;;7390670;19;20135;-75
2022/08/27 08:41:18;;;;;;;24.50;18.40;;;22.00;99.90;;;;;;7389382;19;20170;-76
2022/08/27 08:43:50;;;;;;;24.67;19.77;;;22.10;99.90;;;;;;7391313;19;20140;-75
2022/08/27 08:46:38;;;;;;;27.20;19.98;;;22.00;99.90;;;;;;7393570;19;20198;-79
2022/08/27 08:49:33;;;;;;;26.15;20.25;;;21.90;99.90;;;;;;7396105;19;20156;-86
2022/08/27 08:52:28;;;;;;;24.67;19.73;;;21.90;99.90;;;;;;7392037;19;20620;-75
2022/08/27 08:55:20;;;;;;;29.08;19.80;;;21.90;99.90;;;;;;7391859;19;20131;-74
2022/08/27 08:58:09;;;;;;;26.65;20.25;;;21.90;99.90;;;;;;7390500;19;20153;-74
2022/08/27 09:00:37;;;;;;;23.63;19.58;;;21.90;99.90;;;;;;7387242;19;20222;-76
2022/08/27 09:03:03;;;;;;;26.58;20.20;;;22.00;99.90;;;;;;7392764;19;20146;-75
2022/08/27 09:05:29;;;;;;;29.08;20.20;;;22.00;99.90;;;;;;7389209;19;20135;-75
2022/08/27 09:08:18;;;;;;;23.30;20.17;;;22.00;99.90;;;;;;7395810;19;20135;-76
2022/08/27 09:10:58;;;;;;;30.45;21.65;;;22.00;99.90;;;;;;7394276;19;20178;-76
2022/08/27 09:13:48;;;;;;;23.38;18.85;;;22.00;99.90;;;;;;7391876;19;20135;-75
2022/08/27 09:16:14;;;;;;;24.73;19.08;;;22.10;99.90;;;;;;7392312;19;20209;-75
2022/08/27 09:19:02;;;;;;;26.52;19.77;;;22.00;99.90;;;;;;7391058;19;20138;-76
2022/08/27 09:21:43;;;;;;;23.98;17.70;;;21.90;99.90;;;;;;7392082;19;20198;-75
2022/08/27 09:24:40;;;;;;;19.85;14.70;;;21.90;99.90;;;;;;7393605;19;20213;-74
2022/08/27 09:27:11;;;;;;;19.33;14.38;;;21.70;99.90;;;;;;7392018;19;20135;-75
2022/08/27 09:29:50;;;;;;;17.52;14.13;;;21.50;99.90;;;;;;7389503;19;20138;-77
2022/08/27 09:32:21;;;;;;;18.17;14.07;;;21.40;99.90;;;;;;7390975;19;20499;-75
2022/08/27 09:34:46;;;;;;;16.17;13.10;;;21.40;99.90;;;;;;7391850;19;20135;-76
2022/08/27 09:37:28;;;;;;;14.93;12.50;;;21.30;99.90;;;;;;7393501;19;20583;-75
2022/08/27 09:40:13;;;;;;;14.30;10.75;;;21.30;99.90;;;;;;7392845;19;20237;-76
2022/08/27 09:42:48;;;;;;;14.23;10.75;;;21.40;99.90;;;;;;7390501;19;20154;-77
2022/08/27 09:45:21;;;;;;;12.45;11.13;;;21.40;99.90;;;;;;7393452;19;20517;-75
2022/08/27 09:47:50;;;;;;;12.75;10.32;;;21.40;99.90;;;;;;7389772;19;20145;-77
2022/08/27 09:50:30;;;;;;;11.80;10.27;;;21.50;99.90;;;;;;7392289;19;20153;-78
2022/08/27 09:52:58;;;;;;;12.63;11.07;;;21.60;99.90;;;;;;7392739;19;20171;-75
2022/08/27 09:56:08;;;;;;;11.68;10.48;;;21.60;99.90;;;;;;7389079;19;20166;-81
2022/08/27 09:59:00;;;;;;;11.43;10.23;;;21.50;99.90;;;;;;7389522;19;20186;-76
2022/08/27 10:01:29;;;;;;;12.15;10.05;;;21.50;99.90;;;;;;7391230;19;20147;-76
2022/08/27 10:04:07;;;;;;;12.02;10.85;;;21.50;99.90;;;;;;7393404;19;20142;-76
2022/08/27 10:06:33;;;;;;;12.50;10.48;;;21.50;99.90;;;;;;7395025;19;20621;-74
2022/08/27 10:09:15;;;;;;;11.98;10.38;;;21.50;99.90;;;;;;7389213;19;20123;-75
2022/08/27 10:11:51;;;;;;;14.02;11.75;;;21.50;99.90;;;;;;7390690;19;20184;-75
2022/08/27 10:14:24;;;;;;;11.23;10.05;;;21.60;99.90;;;;;;7391873;19;20153;-75
2022/08/27 10:16:59;;;;;;;12.10;10.60;;;21.70;99.90;;;;;;7391662;19;20143;-74
2022/08/27 10:19:43;;;;;;;12.23;10.93;;;21.70;99.90;;;;;;7387688;19;20151;-74
2022/08/27 10:22:42;;;;;;;12.20;9.95;;;21.80;99.90;;;;;;7390445;19;20134;-74
2022/08/27 10:25:35;;;;;;;12.82;11.43;;;21.80;99.90;;;;;;7391883;19;20143;-74
2022/08/27 10:28:32;;;;;;;12.73;11.10;;;21.80;99.90;;;;;;7389145;19;20523;-74
2022/08/27 10:31:31;;;;;;;14.02;12.48;;;21.90;99.90;;;;;;7391119;19;20631;-74
2022/08/27 10:34:00;;;;;;;15.13;12.93;;;22.00;99.90;;;;;;7385966;19;20158;-73
2022/08/27 10:36:25;;;;;;;13.43;12.02;;;22.00;99.90;;;;;;7389644;19;20154;-74
2022/08/27 10:39:02;;;;;;;13.80;12.30;;;22.00;99.90;;;;;;7388837;19;20514;-75
2022/08/27 10:41:51;;;;;;;17.20;12.82;;;22.00;99.90;;;;;;7389650;19;20149;-75
2022/08/27 10:44:51;;;;;;;15.57;13.02;;;22.00;99.90;;;;;;7388116;19;20161;-76
2022/08/27 10:47:42;;;;;;;14.80;13.23;;;22.10;99.90;;;;;;7390071;19;20648;-74
2022/08/27 10:50:13;;;;;;;15.30;11.98;;;22.10;99.90;;;;;;7387422;19;20154;-73
2022/08/27 10:52:59;;;;;;;13.77;12.07;;;22.10;99.90;;;;;;7389067;19;20620;-75
2022/08/27 10:55:37;;;;;;;15.65;13.13;;;22.20;99.90;;;;;;7384261;19;20150;-77
2022/08/27 10:58:05;;;;;;;15.52;13.40;;;22.20;99.90;;;;;;7389900;19;20141;-76
2022/08/27 11:00:46;;;;;;;18.50;14.82;;;22.10;99.90;;;;;;7387311;19;20482;-77
2022/08/27 11:03:38;;;;;;;14.82;12.43;;;22.20;99.90;;;;;;7392871;19;20154;-75
2022/08/27 11:06:26;;;;;;;15.95;13.70;;;22.20;99.90;;;;;;7391427;19;20280;-75
2022/08/27 11:09:19;;;;;;;17.05;12.38;;;22.20;99.90;;;;;;7387703;19;20150;-76
2022/08/27 11:11:52;;;;;;;17.35;13.00;;;22.20;99.90;;;;;;7389850;19;20203;-75
2022/08/27 11:14:23;;;;;;;14.32;12.82;;;22.20;99.90;;;;;;7389971;19;20174;-75
2022/08/27 11:16:54;;;;;;;14.13;11.77;;;22.20;99.90;;;;;;7391677;19;20142;-76
2022/08/27 11:19:38;;;;;;;17.92;14.50;;;22.20;99.90;;;;;;7388596;19;20146;-76
2022/08/27 11:22:28;;;;;;;14.88;12.77;;;22.20;99.90;;;;;;7390699;19;20139;-75
2022/08/27 11:25:09;;;;;;;16.10;13.60;;;22.20;99.90;;;;;;7389434;19;20620;-75
2022/08/27 11:27:36;;;;;;;16.13;13.50;;;22.20;99.90;;;;;;7393542;19;20198;-74
2022/08/27 11:30:11;;;;;;;16.27;12.85;;;22.20;99.90;;;;;;7385167;19;20147;-77
2022/08/27 11:32:43;;;;;;;18.52;14.00;;;22.30;99.90;;;;;;7390639;19;20171;-73
2022/08/27 11:35:16;;;;;;;17.27;14.02;;;22.20;99.90;;;;;;7390043;19;20172;-72
2022/08/27 11:37:50;;;;;;;19.50;14.73;;;22.20;99.90;;;;;;7389977;19;20962;-76
2022/08/27 11:40:28;;;;;;;16.17;13.20;;;22.20;99.90;;;;;;7384361;19;20155;-73
2022/08/27 11:43:03;;;;;;;16.38;13.45;;;22.20;99.90;;;;;;7385519;19;20154;-74
2022/08/27 11:45:37;;;;;;;15.65;14.05;;;22.30;99.90;;;;;;7391545;19;20130;-74
2022/08/27 11:48:25;;;;;;;17.80;14.20;;;22.30;99.90;;;;;;7393138;19;20138;-75
2022/08/27 11:50:58;;;;;;;18.38;14.75;;;22.30;99.90;;;;;;7394195;19;20150;-76
2022/08/27 11:53:31;;;;;;;20.15;15.18;;;22.30;99.90;;;;;;7398703;19;20642;-75
2022/08/27 11:56:36;;;;;;;14.90;13.10;;;22.30;99.90;;;;;;7398079;19;20142;-74
2022/08/27 11:59:22;;;;;;;15.35;12.90;;;22.40;99.90;;;;;;7391712;19;20947;-76
2022/08/27 12:01:51;;;;;;;15.85;12.50;;;22.40;99.90;;;;;;7394694;19;20146;-73
2022/08/27 12:04:23;;;;;;;15.77;13.65;;;22.30;99.90;;;;;;7392007;19;20241;-75
2022/08/27 12:07:12;;;;;;;16.48;14.18;;;22.30;99.90;;;;;;7391550;19;20605;-74
2022/08/27 12:09:53;;;;;;;18.25;13.75;;;22.40;99.90;;;;;;7394384;19;20138;-75
2022/08/27 12:12:30;;;;;;;17.98;14.27;;;22.40;99.90;;;;;;7395697;19;20138;-74
2022/08/27 12:15:04;;;;;;;15.30;13.70;;;22.50;99.90;;;;;;7392628;19;20154;-76
2022/08/27 12:17:47;;;;;;;17.45;14.02;;;22.50;99.90;;;;;;7392868;19;20134;-75
2022/08/27 12:20:32;;;;;;;19.08;14.85;;;22.50;99.90;;;;;;7391612;19;20171;-75
2022/08/27 12:23:45;;;;;;;17.33;13.70;;;22.50;99.90;;;;;;7396365;19;20141;-77
2022/08/27 12:26:23;;;;;;;16.73;14.30;;;22.50;99.90;;;;;;7389863;19;20182;-75
2022/08/27 12:28:50;;;;;;;19.58;14.60;;;22.50;99.90;;;;;;7390570;19;20147;-75
2022/08/27 12:31:21;;;;;;;15.60;13.55;;;22.60;99.90;;;;;;7390051;19;20158;-75
2022/08/27 12:33:52;;;;;;;17.48;14.50;;;22.70;99.90;;;;;;7390942;19;20154;-74
2022/08/27 12:36:25;;;;;;;16.67;14.88;;;22.80;99.90;;;;;;7393547;19;20188;-74
2022/08/27 12:38:58;;;;;;;16.92;14.43;;;22.80;99.90;;;;;;7395162;19;20134;-76
2022/08/27 12:41:31;;;;;;;15.82;13.75;;;22.80;99.90;;;;;;7393334;19;20146;-75
2022/08/27 12:44:06;;;;;;;18.08;13.95;;;22.80;99.90;;;;;;7393890;19;20150;-75
2022/08/27 12:46:32;;;;;;;18.60;15.18;;;22.90;99.90;;;;;;7396400;19;20126;-76
2022/08/27 12:49:03;;;;;;;17.10;14.20;;;22.90;99.90;;;;;;7395168;19;20187;-75
2022/08/27 12:51:36;;;;;;;18.98;15.63;;;22.90;99.90;;;;;;7391992;19;20248;-75
2022/08/27 12:54:30;;;;;;;17.23;14.90;;;22.90;99.90;;;;;;7393546;19;20135;-74